Petersburg, Illinois
Current Conditions -  °F | °C
As of 8:52 PM on Wednesday 26 Nov 2014 (Local Time) from KSPI Reporting Station
Light Snow Light Snow  
Wind Chill: 20°   Ceiling: 1600
Heat Index: 29°   Visibility: 1.7mi
Dew Point: 27°   Wind: 10mph
Humidity: 92%   Direction: 30°NNE
Pressure: 30.14"   Gusts: NA
Location:  40.01°N, 89.85°W
Report Text: KSPI 270252Z 03009KT 1 3/4SM -SN BR FEW007 OVC016 M02/M03 A3014 RMK AO2 SLP214 P0003 60010 T10171028 53023
Loading
Personal Weather Stations






























Interactive Weather Map New forecast layout! Learn more

10-Day Weather Forecast

Advertisements
Track Severe Weather on mobile